Wetterstation Vordersexau
Wetterdaten: August 2012
Datum Temp. A. Feuchte A. Luftdruck Regen Wind Richtung Taupunkt Windchill Windben
01.08.2012 24,2 C 62 % 1011,9 hPa 0,0 l/m 0,0 km/h O-NO 15,6 C 24,2 C 0,0 km/h
02.08.2012 23,5 C 66 % 1013,3 hPa 0,4 l/m 4,1 km/h N-NO 16,3 C 23,3 C 2,3 km/h
03.08.2012 23,4 C 62 % 1015,2 hPa 0,0 l/m 3,0 km/h O-SO 14,8 C 23,3 C 1,7 km/h
04.08.2012 22,8 C 63 % 1012,8 hPa 0,0 l/m 0,5 km/h O-NO 14,3 C 22,8 C 0,3 km/h
05.08.2012 23,4 C 66 % 1009,0 hPa 3,9 l/m 3,3 km/h O-SO 16,0 C 23,1 C 1,9 km/h
06.08.2012 18,0 C 76 % 1013,5 hPa 1,8 l/m 6,0 km/h SW 13,7 C 17,2 C 3,3 km/h
07.08.2012 19,9 C 65 % 1020,7 hPa 1,4 l/m 2,4 km/h W-SW 12,6 C 19,6 C 1,3 km/h
08.08.2012 20,3 C 62 % 1021,9 hPa 0,0 l/m 4,3 km/h SO 11,8 C 19,9 C 2,4 km/h
09.08.2012 21,2 C 62 % 1021,6 hPa 0,0 l/m 1,6 km/h N-NO 12,4 C 21,2 C 0,9 km/h
10.08.2012 21,0 C 62 % 1021,1 hPa 0,0 l/m 2,6 km/h NW 12,4 C 20,9 C 1,4 km/h
11.08.2012 20,5 C 62 % 1017,4 hPa 0,0 l/m 1,3 km/h W 11,8 C 20,5 C 0,7 km/h
12.08.2012 21,3 C 60 % 1012,2 hPa 0,0 l/m 2,0 km/h S-SO 12,0 C 21,3 C 1,1 km/h
13.08.2012 22,4 C 66 % 1011,9 hPa 0,4 l/m 1,1 km/h SO 15,1 C 22,4 C 0,6 km/h
14.08.2012 23,5 C 64 % 1011,6 hPa 0,0 l/m 1,6 km/h O-NO 15,5 C 23,5 C 0,9 km/h
15.08.2012 26,5 C 60 % 1009,6 hPa 15,7 l/m 0,9 km/h NO 16,6 C 26,5 C 0,5 km/h
16.08.2012 21,8 C 65 % 1017,2 hPa 6,4 l/m 0,2 km/h N-NO 14,2 C 21,8 C 0,1 km/h
17.08.2012 23,0 C 63 % 1017,9 hPa 0,0 l/m 0,3 km/h NO 14,6 C 23,0 C 0,2 km/h
18.08.2012 25,7 C 61 % 1017,5 hPa 0,0 l/m 0,0 km/h O-NO 16,6 C 25,7 C 0,0 km/h
19.08.2012 27,6 C 61 % 1017,2 hPa 0,0 l/m 0,4 km/h SO 18,0 C 27,6 C 0,2 km/h
20.08.2012 26,3 C 65 % 1018,1 hPa 0,0 l/m 0,4 km/h SO 18,4 C 26,3 C 0,2 km/h
21.08.2012 26,5 C 66 % 1015,5 hPa 0,0 l/m 0,2 km/h NO 18,8 C 26,5 C 0,1 km/h
22.08.2012 25,1 C 67 % 1015,2 hPa 0,4 l/m 0,2 km/h O-NO 17,9 C 25,1 C 0,1 km/h
23.08.2012 22,3 C 66 % 1012,8 hPa 5,3 l/m 0,8 km/h W 15,0 C 22,3 C 0,4 km/h
24.08.2012 19,4 C 77 % 1008,0 hPa 11,7 l/m 0,6 km/h N-NO 15,2 C 19,4 C 0,4 km/h
25.08.2012 20,3 C 68 % 1009,6 hPa 0,4 l/m 6,4 km/h SW 13,8 C 19,6 C 3,5 km/h
26.08.2012 17,4 C 70 % 1016,1 hPa 0,0 l/m 7,3 km/h W-SW 11,9 C 16,2 C 4,1 km/h
27.08.2012 19,9 C 62 % 1018,5 hPa 0,0 l/m 0,2 km/h SO 11,2 C 19,9 C 0,1 km/h
28.08.2012 19,0 C 67 % 1016,0 hPa 0,0 l/m 1,3 km/h W-SW 12,3 C 18,9 C 0,7 km/h
29.08.2012 22,6 C 64 % 1016,3 hPa 0,0 l/m 0,2 km/h SO 14,7 C 22,6 C 0,1 km/h
30.08.2012 17,6 C 80 % 1016,2 hPa 2,5 l/m 0,5 km/h NO 14,1 C 17,5 C 0,3 km/h
31.08.2012 13,9 C 76 % 1017,9 hPa 7,8 l/m 0,0 km/h SO 9,6 C 13,9 C 0,0 km/h
Min-Datum 11.08.12 15.08.12 05.08.12 13 Tage 01.08.12 - 11.08.12 08.08.12 01.08.12
Min-Zeit 06:19 17:19 21:19 - 01:19 - 06:19 06:19 01:19
Minimum 9,1 C 24 % 1005,4 hPa - 0,0 km/h - 6,4 C 7,1 C 0,0 km/h
Max-Datum 19.08.12 12.08.12 08.08.12 15.08.12 25.08.12 - 21.08.12 19.08.12 25.08.12
Max-Zeit 17:19 06:19 09:19 23:19 14:19 - 19:19 17:19 14:19
Maximum 45,2 C 84 % 1022,9 hPa 15,7 l/m 34,3 km/h
SW
- 23,5 C 45,2 C 19,1 km/h
SW
Durchschnitt 21,9 C 66 % 1015,3 hPa #58,0 l/m 1,7 km/h SO 14,4 C 21,8 C 1,0 km/h

Durchschnitt Minimum Temp.14,0 C
Durchschnitt Maximum Temp.33,1 C
www.sexauwetter.de